Time;durP1;ratioP1;P1;durP2;ratioP2;P2;SDS_P1;SDS_P2;PMS_P1;PMS_P2;Temp;Humidity;BMP_temperature;BMP_pressure;BME280_temperature;BME280_humidity;BME280_pressure;Samples;Min_cycle;Max_cycle;Signal;HPM_P1;HPM_P2
2022/12/20 00:01:10;;;;;;;10.70;9.03;;;;;;;1.29;55.18;96705.69;5049127;28;20218;-65
2022/12/20 00:03:36;;;;;;;12.90;9.03;;;;;;;1.31;55.35;96710.84;5052581;28;20229;-65
2022/12/20 00:06:02;;;;;;;12.77;9.20;;;;;;;1.29;54.84;96703.09;5044044;28;20244;-66
2022/12/20 00:08:27;;;;;;;11.63;8.73;;;;;;;1.24;55.37;96710.19;5042610;28;20224;-66
2022/12/20 00:10:53;;;;;;;12.60;8.73;;;;;;;1.24;55.27;96717.97;5043897;28;20185;-66
2022/12/20 00:13:18;;;;;;;9.47;8.37;;;;;;;1.31;54.91;96716.03;5038837;28;20218;-66
2022/12/20 00:15:43;;;;;;;11.80;8.70;;;;;;;1.28;55.03;96719.56;5042892;28;20259;-66
2022/12/20 00:18:09;;;;;;;10.50;8.13;;;;;;;1.25;55.10;96719.66;5058940;28;20275;-66
2022/12/20 00:20:34;;;;;;;11.50;8.27;;;;;;;1.25;55.02;96718.81;5039194;28;20222;-66
2022/12/20 00:23:00;;;;;;;11.37;8.63;;;;;;;1.20;55.35;96726.72;5046063;28;20187;-65
2022/12/20 00:25:26;;;;;;;11.63;9.20;;;;;;;1.20;55.28;96721.56;5036984;28;20263;-65
2022/12/20 00:27:51;;;;;;;10.40;8.93;;;;;;;1.18;55.42;96719.94;5039536;28;20249;-65
2022/12/20 00:30:18;;;;;;;10.27;8.83;;;;;;;1.21;55.27;96730.19;5050716;28;20230;-65
2022/12/20 00:32:44;;;;;;;10.47;8.63;;;;;;;1.20;55.33;96733.66;5040328;28;20222;-65
2022/12/20 00:35:10;;;;;;;10.87;8.63;;;;;;;1.23;55.14;96731.84;5053062;28;20192;-65
2022/12/20 00:37:36;;;;;;;11.13;8.67;;;;;;;1.15;55.35;96726.06;5050309;28;20185;-66
2022/12/20 00:40:04;;;;;;;10.57;8.03;;;;;;;1.18;55.60;96727.72;5055793;28;20221;-65
2022/12/20 00:42:29;;;;;;;10.80;9.17;;;;;;;1.14;55.12;96714.00;5036108;28;20278;-65
2022/12/20 00:44:55;;;;;;;10.70;8.17;;;;;;;1.06;55.53;96721.19;5021012;28;20218;-65
2022/12/20 00:47:20;;;;;;;12.30;9.10;;;;;;;1.06;55.71;96710.81;5043857;28;20190;-66
2022/12/20 00:49:46;;;;;;;9.77;8.40;;;;;;;1.09;55.41;96714.16;5037944;28;20193;-66
2022/12/20 00:52:11;;;;;;;9.33;7.53;;;;;;;1.06;55.23;96713.41;5047054;28;20240;-66
2022/12/20 00:54:36;;;;;;;10.17;7.80;;;;;;;1.09;55.10;96713.31;5047305;28;20283;-66
2022/12/20 00:57:02;;;;;;;11.70;8.70;;;;;;;0.94;55.36;96717.28;5048917;28;20221;-66
2022/12/20 00:59:27;;;;;;;10.97;8.13;;;;;;;0.99;55.01;96719.69;5041195;28;20313;-66
2022/12/20 01:01:53;;;;;;;10.17;8.40;;;;;;;0.99;55.12;96728.34;5045915;28;20182;-66
2022/12/20 01:04:18;;;;;;;11.03;7.97;;;;;;;0.91;55.27;96726.88;5050216;28;20217;-66
2022/12/20 01:06:44;;;;;;;10.47;7.73;;;;;;;0.94;55.32;96721.63;5038723;28;20217;-66
2022/12/20 01:09:10;;;;;;;9.47;7.63;;;;;;;0.81;55.66;96721.19;5038557;28;20218;-66
2022/12/20 01:11:37;;;;;;;10.13;8.03;;;;;;;0.93;55.75;96725.94;5043946;28;20225;-66
2022/12/20 01:14:07;;;;;;;10.33;7.73;;;;;;;0.96;55.37;96714.63;5047495;28;20192;-66
2022/12/20 01:16:38;;;;;;;10.57;8.33;;;;;;;0.97;55.24;96705.97;5043903;28;20252;-66
2022/12/20 01:19:05;;;;;;;10.00;8.00;;;;;;;1.03;55.15;96713.53;5035268;28;20226;-66
2022/12/20 01:21:31;;;;;;;9.83;7.43;;;;;;;0.99;55.23;96704.16;5035372;28;20224;-66
2022/12/20 01:23:56;;;;;;;9.90;7.80;;;;;;;0.94;55.65;96711.25;5047474;28;20225;-66
2022/12/20 01:26:24;;;;;;;10.20;8.00;;;;;;;0.79;55.28;96697.91;5046022;28;20229;-66
2022/12/20 01:28:54;;;;;;;9.83;7.53;;;;;;;0.85;55.72;96699.44;5029199;28;20194;-66
2022/12/20 01:31:20;;;;;;;10.77;8.03;;;;;;;0.81;55.47;96693.53;5028331;28;20218;-67
2022/12/20 01:33:46;;;;;;;12.30;8.13;;;;;;;0.77;55.48;96686.75;5022896;28;20268;-66
2022/12/20 01:36:21;;;;;;;10.20;7.60;;;;;;;0.79;55.61;96682.38;5018890;28;20281;-66
2022/12/20 01:38:46;;;;;;;9.23;7.03;;;;;;;0.68;55.57;96681.88;5031515;28;20288;-66
2022/12/20 01:41:16;;;;;;;10.73;8.17;;;;;;;0.73;55.27;96677.41;5029974;28;20188;-66
2022/12/20 01:43:56;;;;;;;9.70;7.87;;;;;;;0.63;55.91;96668.25;5021996;28;20191;-65
2022/12/20 01:46:25;;;;;;;8.23;7.27;;;;;;;0.69;55.59;96673.22;5030266;28;20315;-66
2022/12/20 01:49:05;;;;;;;10.27;6.77;;;;;;;0.73;56.05;96679.16;5021422;28;20211;-66
2022/12/20 01:51:34;;;;;;;8.87;7.33;;;;;;;0.72;55.80;96685.22;5024879;28;20245;-66
2022/12/20 01:54:26;;;;;;;9.93;7.30;;;;;;;0.69;55.66;96673.22;5023696;28;20253;-66
2022/12/20 01:56:57;;;;;;;8.87;7.30;;;;;;;0.70;55.46;96664.56;5021710;28;20281;-66
2022/12/20 01:59:24;;;;;;;12.63;7.47;;;;;;;0.66;55.37;96661.22;5023363;28;20210;-66
2022/12/20 02:01:50;;;;;;;9.77;7.67;;;;;;;0.68;55.59;96666.34;5030189;28;20205;-66
2022/12/20 02:04:16;;;;;;;10.97;7.80;;;;;;;0.65;55.36;96656.94;5024094;28;20226;-66
2022/12/20 02:06:41;;;;;;;9.27;7.67;;;;;;;0.55;55.54;96665.06;5019576;28;20241;-66
2022/12/20 02:09:07;;;;;;;9.47;7.77;;;;;;;0.67;55.45;96662.09;5028536;28;20241;-66
2022/12/20 02:11:39;;;;;;;9.17;6.60;;;;;;;0.73;55.04;96659.28;5021743;28;20238;-66
2022/12/20 02:14:29;;;;;;;9.33;7.17;;;;;;;0.64;55.13;96654.41;5028798;28;20186;-66
2022/12/20 02:17:18;;;;;;;10.40;7.80;;;;;;;0.63;54.84;96652.72;5039982;28;20218;-66
2022/12/20 02:20:31;;;;;;;9.27;6.97;;;;;;;0.57;55.02;96658.09;5047104;28;20251;-66
2022/12/20 02:23:24;;;;;;;8.50;7.23;;;;;;;0.53;54.72;96652.16;4981534;28;20310;-66
2022/12/20 02:26:10;;;;;;;9.93;7.93;;;;;;;0.57;54.84;96661.53;4979967;28;20243;-66
2022/12/20 02:28:48;;;;;;;10.97;7.97;;;;;;;0.55;55.13;96655.56;4970922;28;20275;-66
2022/12/20 02:31:18;;;;;;;8.83;7.47;;;;;;;0.40;55.58;96664.69;4955330;28;20248;-66
2022/12/20 02:33:47;;;;;;;8.43;7.40;;;;;;;0.39;55.29;96656.97;4967403;28;20228;-66
2022/12/20 02:36:17;;;;;;;10.13;7.40;;;;;;;0.46;55.22;96665.38;4962176;28;20231;-66
2022/12/20 02:38:43;;;;;;;9.23;7.40;;;;;;;0.49;55.03;96660.94;4972299;28;20236;-65
2022/12/20 02:41:25;;;;;;;9.13;7.50;;;;;;;0.36;55.38;96654.47;4976900;28;20243;-66
2022/12/20 02:46:49;;;;;;;9.10;7.63;;;;;;;0.46;55.53;96644.69;4961427;28;20251;-66
2022/12/20 02:49:18;;;;;;;9.87;8.27;;;;;;;0.51;55.21;96653.97;4957767;28;20228;-66
2022/12/20 02:51:48;;;;;;;12.43;8.80;;;;;;;0.53;55.01;96652.16;4966921;28;20226;-65
2022/12/20 02:54:15;;;;;;;12.20;8.70;;;;;;;0.50;54.91;96641.06;5023062;28;20222;-66
2022/12/20 02:56:46;;;;;;;9.13;7.53;;;;;;;0.44;54.55;96639.53;5040707;28;20307;-66
2022/12/20 02:59:24;;;;;;;11.23;8.60;;;;;;;0.39;54.82;96639.69;5038876;28;20209;-66
2022/12/20 03:01:52;;;;;;;9.93;8.73;;;;;;;0.39;54.91;96637.09;5039069;28;20237;-66
2022/12/20 03:04:22;;;;;;;9.10;7.97;;;;;;;0.34;55.11;96646.75;5024170;28;20222;-66
2022/12/20 03:07:08;;;;;;;10.33;8.13;;;;;;;0.42;55.09;96643.91;5027622;28;20230;-66
2022/12/20 03:09:37;;;;;;;12.53;9.20;;;;;;;0.38;55.44;96640.59;5061916;28;20228;-66
2022/12/20 03:12:03;;;;;;;10.77;9.00;;;;;;;0.31;55.79;96639.09;5044260;28;20233;-66
2022/12/20 03:14:29;;;;;;;12.27;9.10;;;;;;;0.27;56.06;96639.22;5044325;28;20280;-66
2022/12/20 03:16:54;;;;;;;12.53;9.83;;;;;;;0.24;56.49;96640.16;5046810;28;20181;-66
2022/12/20 03:19:20;;;;;;;12.60;10.73;;;;;;;0.25;56.55;96634.13;5053503;28;20294;-66
2022/12/20 03:21:46;;;;;;;11.90;9.63;;;;;;;0.24;56.63;96629.81;5039445;28;20263;-66
2022/12/20 03:24:12;;;;;;;11.57;9.47;;;;;;;0.28;56.88;96635.75;5044649;28;20320;-66
2022/12/20 03:26:38;;;;;;;11.50;9.70;;;;;;;0.29;56.75;96633.13;5039301;28;20230;-66
2022/12/20 03:29:04;;;;;;;14.67;9.43;;;;;;;0.31;56.90;96631.31;5047437;28;20186;-66
2022/12/20 03:31:30;;;;;;;13.03;9.60;;;;;;;0.30;56.62;96639.16;5041463;28;20221;-66
2022/12/20 03:33:55;;;;;;;11.07;9.37;;;;;;;0.26;56.74;96638.38;5040292;28;20257;-67
2022/12/20 03:36:22;;;;;;;12.37;9.90;;;;;;;0.13;57.03;96631.91;5041528;28;20225;-66
2022/12/20 03:38:49;;;;;;;12.53;9.83;;;;;;;0.17;56.94;96633.53;5045364;28;20233;-66
2022/12/20 03:41:15;;;;;;;13.60;9.90;;;;;;;0.25;56.70;96635.88;5038166;28;20186;-66
2022/12/20 03:43:40;;;;;;;12.63;10.23;;;;;;;0.13;57.11;96631.91;5046314;28;20206;-66
2022/12/20 03:46:06;;;;;;;13.33;10.30;;;;;;;0.12;57.13;96630.22;5041497;28;20228;-66
2022/12/20 03:48:31;;;;;;;12.20;9.90;;;;;;;0.20;56.98;96630.84;5039769;28;20226;-66
2022/12/20 03:50:56;;;;;;;15.47;11.27;;;;;;;0.15;57.26;96624.97;5028061;28;20221;-66
2022/12/20 03:53:22;;;;;;;15.43;10.67;;;;;;;-0.06;57.36;96627.31;5051805;28;20264;-65
2022/12/20 03:55:47;;;;;;;14.80;11.43;;;;;;;-0.03;57.58;96626.38;5042085;28;20190;-66
2022/12/20 03:58:13;;;;;;;14.17;11.23;;;;;;;0.10;57.22;96626.84;5043467;28;20213;-66
2022/12/20 04:00:38;;;;;;;16.77;11.70;;;;;;;0.13;56.68;96624.16;5024545;28;20225;-66
2022/12/20 04:03:03;;;;;;;12.53;10.60;;;;;;;-0.05;57.63;96623.84;5030264;28;20226;-66
2022/12/20 04:05:29;;;;;;;14.70;10.77;;;;;;;-0.01;57.34;96624.59;5029278;28;20225;-66
2022/12/20 04:07:54;;;;;;;14.20;11.53;;;;;;;-0.11;57.54;96626.63;5045901;28;20224;-66
2022/12/20 04:10:20;;;;;;;15.27;11.47;;;;;;;-0.02;57.73;96628.94;5045697;28;20213;-66
2022/12/20 04:12:45;;;;;;;13.40;11.27;;;;;;;0.02;57.52;96624.50;5024926;28;20313;-67
2022/12/20 04:15:11;;;;;;;13.33;11.23;;;;;;;-0.03;57.69;96623.78;5026417;28;20215;-66
2022/12/20 04:17:36;;;;;;;13.80;10.73;;;;;;;0.01;57.12;96625.41;5023911;28;20304;-66
2022/12/20 04:20:17;;;;;;;12.30;10.40;;;;;;;-0.14;57.79;96629.28;5034419;28;20212;-66
2022/12/20 04:22:48;;;;;;;14.73;10.77;;;;;;;-0.01;57.43;96622.00;5042697;28;20239;-66
2022/12/20 04:25:15;;;;;;;14.23;11.60;;;;;;;-0.03;57.45;96622.06;5031780;28;20280;-66
2022/12/20 04:27:41;;;;;;;12.73;10.40;;;;;;;-0.03;57.21;96619.50;5029738;28;20230;-66
2022/12/20 04:30:07;;;;;;;14.73;11.70;;;;;;;-0.02;57.06;96607.41;5016391;28;20254;-66
2022/12/20 04:32:32;;;;;;;12.27;10.57;;;;;;;-0.10;57.68;96614.56;5020950;28;20229;-66
2022/12/20 04:34:58;;;;;;;13.40;11.77;;;;;;;-0.05;57.67;96613.50;5028811;28;20187;-66
2022/12/20 04:37:23;;;;;;;13.17;10.80;;;;;;;-0.06;57.73;96610.97;5051356;28;20273;-66
2022/12/20 04:39:49;;;;;;;11.97;10.00;;;;;;;0.02;57.32;96615.91;5044167;28;20225;-66
2022/12/20 04:42:14;;;;;;;13.13;11.43;;;;;;;-0.11;57.40;96611.09;5049948;28;20275;-66
2022/12/20 04:44:39;;;;;;;13.20;10.83;;;;;;;-0.21;57.31;96607.13;5038233;28;20226;-66
2022/12/20 04:47:05;;;;;;;13.30;11.13;;;;;;;-0.22;57.86;96616.59;5043757;28;20177;-66
2022/12/20 04:49:30;;;;;;;16.30;12.17;;;;;;;-0.22;57.74;96611.44;5038045;28;20286;-66
2022/12/20 04:53:46;;;;;;;14.07;11.20;;;;;;;-0.28;57.67;96603.88;5056546;28;20218;-66
2022/12/20 04:54:41;;;;;;;15.57;11.73;;;;;;;-0.33;58.11;96617.84;5034827;28;20224;-66
2022/12/20 04:57:08;;;;;;;15.07;12.13;;;;;;;-0.38;58.30;96611.94;5047976;28;20304;-66
2022/12/20 04:59:34;;;;;;;13.47;11.40;;;;;;;-0.39;58.38;96612.84;5044450;28;20229;-67
2022/12/20 05:02:00;;;;;;;15.13;11.80;;;;;;;-0.36;58.02;96605.00;5040843;28;20381;-66
2022/12/20 05:04:25;;;;;;;13.50;11.50;;;;;;;-0.39;57.96;96611.13;5044532;28;20218;-66
2022/12/20 05:06:51;;;;;;;14.40;11.23;;;;;;;-0.42;58.28;96608.63;5043754;28;20217;-66
2022/12/20 05:09:16;;;;;;;14.63;11.73;;;;;;;-0.37;58.04;96605.91;5044019;28;20271;-67
2022/12/20 05:11:41;;;;;;;16.43;11.87;;;;;;;-0.40;57.83;96599.09;5044032;28;20226;-66
2022/12/20 05:14:07;;;;;;;13.97;11.80;;;;;;;-0.25;58.00;96608.09;5052257;28;20178;-66
2022/12/20 05:16:32;;;;;;;14.93;12.83;;;;;;;-0.32;58.19;96614.34;5049234;28;20178;-66
2022/12/20 05:18:58;;;;;;;14.67;12.60;;;;;;;-0.45;58.15;96614.72;5044586;28;20232;-66
2022/12/20 05:26:52;;;;;;;15.27;12.17;;;;;;;-0.42;58.02;96615.53;5058334;28;20290;-66
2022/12/20 05:29:17;;;;;;;13.70;12.07;;;;;;;-0.39;58.03;96608.53;5050919;28;20182;-66
2022/12/20 05:31:43;;;;;;;18.53;12.50;;;;;;;-0.47;58.26;96613.09;5045048;28;20201;-65
2022/12/20 05:34:08;;;;;;;14.73;12.20;;;;;;;-0.67;58.84;96609.34;5044435;28;20218;-66
2022/12/20 05:36:34;;;;;;;17.47;12.50;;;;;;;-0.58;58.57;96597.91;5030135;28;20219;-66
2022/12/20 05:38:59;;;;;;;16.23;12.00;;;;;;;-0.56;58.55;96605.59;5035954;28;20229;-66
2022/12/20 05:41:25;;;;;;;16.13;12.03;;;;;;;-0.59;58.58;96606.53;5041876;28;20243;-66
2022/12/20 05:43:50;;;;;;;17.97;13.00;;;;;;;-0.56;58.50;96610.75;5048237;28;20194;-66
2022/12/20 05:46:16;;;;;;;17.00;13.33;;;;;;;-0.50;58.37;96626.09;5050652;28;20233;-66
2022/12/20 05:48:41;;;;;;;18.17;12.43;;;;;;;-0.58;58.45;96625.47;5047924;28;20233;-66
2022/12/20 05:51:07;;;;;;;17.03;13.00;;;;;;;-0.51;58.56;96622.69;5036870;28;20225;-66
2022/12/20 05:53:32;;;;;;;15.97;12.33;;;;;;;-0.54;58.27;96620.16;5031119;28;20218;-66
2022/12/20 05:55:58;;;;;;;17.50;13.10;;;;;;;-0.53;58.39;96618.44;5030866;28;20193;-66
2022/12/20 05:58:24;;;;;;;16.27;12.33;;;;;;;-0.71;58.85;96617.22;5027275;28;20230;-66
2022/12/20 06:00:49;;;;;;;16.67;12.43;;;;;;;-0.70;58.76;96616.31;5033729;28;20234;-66
2022/12/20 06:03:15;;;;;;;15.40;12.70;;;;;;;-0.64;58.36;96616.19;5038552;28;20243;-66
2022/12/20 06:05:42;;;;;;;15.33;11.87;;;;;;;-0.63;58.43;96615.28;5027853;28;20241;-66
2022/12/20 06:08:08;;;;;;;15.87;12.50;;;;;;;-0.59;58.24;96619.44;5023165;28;20193;-66
2022/12/20 06:10:34;;;;;;;16.47;12.37;;;;;;;-0.67;58.70;96618.81;5047313;28;20190;-65
2022/12/20 06:13:03;;;;;;;17.20;13.33;;;;;;;-0.61;58.28;96615.25;5047068;28;20218;-66
2022/12/20 06:15:30;;;;;;;17.50;13.37;;;;;;;-0.63;58.33;96614.44;5055961;28;20226;-66
2022/12/20 06:17:55;;;;;;;17.27;12.83;;;;;;;-0.72;58.21;96620.72;5034674;28;20229;-66
2022/12/20 06:20:21;;;;;;;17.37;12.67;;;;;;;-0.70;58.58;96613.75;5024348;28;20230;-65
2022/12/20 06:22:46;;;;;;;17.17;12.60;;;;;;;-0.53;58.17;96621.88;5042887;28;20190;-66
2022/12/20 06:25:13;;;;;;;17.27;12.87;;;;;;;-0.47;57.76;96613.94;5048459;28;20260;-66
2022/12/20 06:27:39;;;;;;;17.70;12.93;;;;;;;-0.49;57.81;96618.28;5052825;28;20243;-66
2022/12/20 06:30:06;;;;;;;14.70;12.83;;;;;;;-0.53;58.02;96621.88;5051484;28;20234;-66
2022/12/20 06:32:33;;;;;;;17.17;13.10;;;;;;;-0.48;57.90;96620.00;5034362;28;20249;-66
2022/12/20 06:34:58;;;;;;;20.87;13.77;;;;;;;-0.44;57.76;96623.31;5052783;28;20272;-66
2022/12/20 06:37:24;;;;;;;19.27;13.03;;;;;;;-0.51;58.04;96619.22;5042825;28;20305;-66
2022/12/20 06:39:49;;;;;;;22.47;13.50;;;;;;;-0.41;57.49;96624.97;5041803;28;20222;-66
2022/12/20 06:42:14;;;;;;;16.17;12.63;;;;;;;-0.30;57.63;96630.66;5049679;28;20226;-66
2022/12/20 06:44:40;;;;;;;15.70;12.60;;;;;;;-0.35;57.27;96620.44;5050220;28;20221;-66
2022/12/20 06:47:05;;;;;;;19.70;13.90;;;;;;;-0.30;57.12;96613.41;5051286;28;20186;-66
2022/12/20 06:49:31;;;;;;;18.57;13.20;;;;;;;-0.32;57.01;96606.59;5040484;28;20214;-66
2022/12/20 06:51:56;;;;;;;16.27;12.80;;;;;;;-0.34;57.28;96603.22;5032900;28;20218;-66
2022/12/20 06:54:22;;;;;;;19.43;13.70;;;;;;;-0.14;56.86;96612.94;5029154;28;20361;-66
2022/12/20 06:56:47;;;;;;;16.00;11.97;;;;;;;-0.17;56.50;96608.72;5024036;28;20218;-66
2022/12/20 06:59:13;;;;;;;15.27;12.13;;;;;;;-0.05;56.41;96612.69;5021042;28;20229;-66
2022/12/20 07:01:38;;;;;;;20.63;12.43;;;;;;;-0.06;56.28;96598.03;5029345;28;20553;-67
2022/12/20 07:04:03;;;;;;;16.00;11.60;;;;;;;-0.08;56.14;96589.47;5032182;28;20229;-65
2022/12/20 07:06:29;;;;;;;17.00;11.67;;;;;;;-0.01;55.69;96594.41;5027476;28;20227;-66
2022/12/20 07:08:55;;;;;;;13.27;11.13;;;;;;;0.01;55.82;96596.13;5029018;28;20225;-66
2022/12/20 07:11:21;;;;;;;14.83;11.60;;;;;;;0.09;55.46;96588.94;5022663;28;20187;-66
2022/12/20 07:13:46;;;;;;;15.37;11.50;;;;;;;0.11;55.06;96588.00;5027359;28;20273;-66
2022/12/20 07:16:12;;;;;;;16.03;11.13;;;;;;;-0.05;55.21;96587.66;5019376;28;20232;-66
2022/12/20 07:18:37;;;;;;;15.80;11.47;;;;;;;0.13;55.19;96590.53;5028765;28;20217;-66
2022/12/20 07:21:04;;;;;;;17.23;12.20;;;;;;;0.20;54.92;96585.09;5021417;28;20237;-66
2022/12/20 07:23:30;;;;;;;14.73;11.70;;;;;;;0.25;54.44;96584.97;5027027;28;20230;-66
2022/12/20 07:25:58;;;;;;;15.30;11.20;;;;;;;0.19;54.27;96587.75;5026123;28;20222;-66
2022/12/20 07:28:25;;;;;;;17.43;11.80;;;;;;;0.34;54.26;96586.41;5024307;28;20222;-66
2022/12/20 07:30:50;;;;;;;16.50;11.53;;;;;;;0.32;53.93;96581.28;5012559;28;20226;-66
2022/12/20 07:33:16;;;;;;;19.30;11.73;;;;;;;0.47;53.88;96581.66;5028707;28;20225;-67
2022/12/20 07:35:44;;;;;;;19.03;12.30;;;;;;;0.66;53.50;96590.47;5024794;28;20226;-66
2022/12/20 07:55:30;;;;;;;12.83;8.93;;;;;;;0.96;51.41;96582.53;5035852;28;20225;-66
2022/12/20 07:58:01;;;;;;;15.97;9.77;;;;;;;1.03;50.68;96576.25;5052850;28;20229;-66
2022/12/20 08:00:26;;;;;;;15.80;9.23;;;;;;;1.08;50.92;96577.75;5032120;28;20316;-66
2022/12/20 08:03:01;;;;;;;12.47;9.77;;;;;;;1.05;50.33;96582.22;5050827;28;20288;-66
2022/12/20 08:05:27;;;;;;;12.13;8.87;;;;;;;1.15;49.98;96578.41;5035286;28;20182;-66
2022/12/20 08:07:55;;;;;;;12.13;9.00;;;;;;;1.20;49.25;96575.63;5039295;28;20194;-66
2022/12/20 08:10:21;;;;;;;12.67;8.77;;;;;;;1.19;49.43;96564.41;5042480;28;20436;-66
2022/12/20 08:12:47;;;;;;;11.10;9.03;;;;;;;1.14;49.36;96571.50;5043250;28;20314;-66
2022/12/20 08:15:13;;;;;;;13.60;10.87;;;;;;;1.21;49.27;96562.63;5038578;28;20230;-66
2022/12/20 08:17:38;;;;;;;15.17;10.50;;;;;;;1.26;49.52;96563.28;5039611;28;20248;-66
2022/12/20 08:20:05;;;;;;;17.77;10.63;;;;;;;1.36;49.96;96563.75;5024461;28;20201;-66
2022/12/20 08:22:31;;;;;;;11.97;10.33;;;;;;;1.27;50.21;96564.97;5046466;28;20308;-66
2022/12/20 08:24:56;;;;;;;12.90;10.63;;;;;;;1.19;50.57;96554.03;5025070;28;20360;-66
2022/12/20 08:27:22;;;;;;;12.00;8.70;;;;;;;1.39;50.05;96561.09;5041575;28;20311;-66
2022/12/20 08:29:48;;;;;;;12.67;9.03;;;;;;;1.43;49.25;96560.06;5039579;28;20356;-66
2022/12/20 08:32:14;;;;;;;10.27;8.43;;;;;;;1.40;49.51;96557.59;5034984;28;20220;-66
2022/12/20 08:34:40;;;;;;;11.30;8.80;;;;;;;1.42;49.58;96554.94;5018636;28;20175;-66
2022/12/20 08:37:06;;;;;;;12.47;9.37;;;;;;;1.41;49.49;96564.44;5024405;28;20302;-66
2022/12/20 08:39:31;;;;;;;11.90;8.57;;;;;;;1.50;49.22;96555.50;5038338;28;20303;-66
2022/12/20 08:41:57;;;;;;;12.57;9.30;;;;;;;1.64;48.76;96548.00;5027970;28;20287;-66
2022/12/20 08:44:22;;;;;;;13.17;8.70;;;;;;;1.69;48.65;96548.69;5031764;28;20213;-66
2022/12/20 08:46:47;;;;;;;12.23;8.60;;;;;;;1.77;48.38;96546.63;5019587;28;20190;-66
2022/12/20 08:49:13;;;;;;;11.70;9.03;;;;;;;1.63;49.35;96559.31;5022377;28;20214;-66
2022/12/20 08:51:38;;;;;;;14.03;9.83;;;;;;;1.68;49.03;96546.97;5023712;28;20210;-66
2022/12/20 08:54:04;;;;;;;13.53;8.87;;;;;;;1.65;49.45;96547.09;5030156;28;20222;-66
2022/12/20 08:56:29;;;;;;;11.40;8.27;;;;;;;1.70;49.02;96545.16;5032634;28;20247;-65
2022/12/20 08:58:55;;;;;;;13.30;9.17;;;;;;;1.52;49.04;96546.75;5047380;28;20212;-66
2022/12/20 09:01:20;;;;;;;10.53;8.30;;;;;;;2.07;47.24;96541.13;5021550;28;20245;-66
2022/12/20 09:03:46;;;;;;;11.03;8.53;;;;;;;1.62;48.44;96539.44;5042952;28;20240;-66
2022/12/20 09:06:15;;;;;;;12.80;8.77;;;;;;;1.66;48.50;96543.63;5033855;28;20222;-65
2022/12/20 09:08:41;;;;;;;11.53;8.67;;;;;;;1.61;48.62;96532.59;5029591;28;20217;-65
2022/12/20 09:11:13;;;;;;;12.43;8.40;;;;;;;1.86;48.60;96529.00;5054754;28;20185;-65
2022/12/20 09:13:40;;;;;;;11.93;9.00;;;;;;;2.04;48.16;96522.25;5041261;28;20283;-66
2022/12/20 09:16:06;;;;;;;14.20;9.53;;;;;;;2.11;48.20;96514.16;5032966;28;20214;-66
2022/12/20 09:18:32;;;;;;;12.60;9.30;;;;;;;2.15;47.15;96515.69;5029067;28;20215;-66
2022/12/20 09:20:59;;;;;;;9.63;7.97;;;;;;;2.09;47.00;96507.34;5027714;28;20325;-65
2022/12/20 09:23:25;;;;;;;11.07;8.00;;;;;;;2.15;46.18;96507.91;5022601;28;20240;-65
2022/12/20 09:25:50;;;;;;;11.80;8.07;;;;;;;2.20;46.18;96505.97;5029071;28;20233;-66
2022/12/20 09:28:16;;;;;;;14.27;9.63;;;;;;;2.31;45.97;96502.06;5030341;28;20225;-65
2022/12/20 09:30:41;;;;;;;11.10;8.80;;;;;;;2.36;46.27;96498.38;5020134;28;20227;-65
2022/12/20 09:33:06;;;;;;;14.17;8.43;;;;;;;2.42;45.57;96497.25;5023774;28;20225;-66
2022/12/20 09:35:32;;;;;;;10.87;7.43;;;;;;;2.40;45.71;96494.72;5017284;28;20215;-65
2022/12/20 09:37:58;;;;;;;9.50;7.13;;;;;;;2.44;44.90;96495.44;5022356;28;20178;-66
2022/12/20 09:40:29;;;;;;;9.93;8.37;;;;;;;2.16;45.59;96486.22;5022842;28;20237;-65
2022/12/20 09:42:55;;;;;;;10.27;7.50;;;;;;;2.37;45.19;96483.63;5036865;28;20325;-65
2022/12/20 09:45:30;;;;;;;11.63;8.23;;;;;;;2.39;45.18;96482.66;5033746;28;20218;-65
2022/12/20 09:47:56;;;;;;;8.63;7.27;;;;;;;2.52;44.25;96480.38;5029109;28;20224;-65
2022/12/20 09:50:36;;;;;;;9.87;7.37;;;;;;;2.55;44.21;96472.47;5047705;28;20212;-66
2022/12/20 09:53:09;;;;;;;11.43;7.60;;;;;;;2.74;44.16;96471.66;5034820;28;20296;-65
2022/12/20 09:55:45;;;;;;;9.17;7.13;;;;;;;2.85;43.18;96475.44;5059656;28;20218;-65
2022/12/20 09:58:17;;;;;;;10.20;7.43;;;;;;;2.99;42.56;96468.78;5050558;28;20221;-66
2022/12/20 10:00:46;;;;;;;8.90;7.13;;;;;;;2.98;42.35;96459.31;5061695;28;20225;-65
2022/12/20 10:03:20;;;;;;;12.60;8.10;;;;;;;2.87;42.73;96452.84;5043304;28;20305;-65
2022/12/20 10:05:54;;;;;;;9.63;7.53;;;;;;;2.92;42.32;96451.81;5056472;28;20229;-65
2022/12/20 10:08:55;;;;;;;10.97;7.73;;;;;;;3.02;42.34;96440.03;5043006;28;20193;-65
2022/12/20 10:11:50;;;;;;;15.97;9.10;;;;;;;2.93;43.71;96441.31;5033611;28;20276;-65
2022/12/20 10:14:24;;;;;;;13.57;9.20;;;;;;;3.05;43.08;96430.38;5031214;28;20197;-65
2022/12/20 10:16:57;;;;;;;12.67;8.83;;;;;;;2.67;44.03;96421.72;5035825;28;20252;-65
2022/12/20 10:19:50;;;;;;;9.67;8.30;;;;;;;2.97;43.38;96414.28;5034772;28;20253;-65
2022/12/20 10:22:24;;;;;;;12.27;9.00;;;;;;;3.08;43.14;96409.44;5046714;28;20229;-66
2022/12/20 10:25:10;;;;;;;11.60;8.83;;;;;;;3.29;42.11;96394.59;5034765;28;20217;-64
2022/12/20 10:27:40;;;;;;;12.37;9.10;;;;;;;3.49;41.75;96387.56;5031521;28;20233;-65
2022/12/20 10:30:12;;;;;;;11.47;7.30;;;;;;;3.72;40.76;96383.84;5035808;28;20281;-65
2022/12/20 10:32:40;;;;;;;10.03;7.43;;;;;;;3.86;41.08;96381.38;5054220;28;20224;-65
2022/12/20 10:35:09;;;;;;;8.70;6.97;;;;;;;3.78;39.75;96375.72;5055526;28;20193;-65
2022/12/20 10:37:34;;;;;;;12.80;8.10;;;;;;;3.91;39.87;96365.53;5047722;28;20236;-66
2022/12/20 10:40:00;;;;;;;9.30;7.37;;;;;;;3.97;40.01;96366.06;5052612;28;20229;-65
2022/12/20 10:42:29;;;;;;;8.47;7.20;;;;;;;4.06;39.87;96361.31;5052955;28;20224;-65
2022/12/20 10:44:56;;;;;;;10.77;7.07;;;;;;;4.09;39.84;96354.19;5044302;28;20248;-66
2022/12/20 10:47:40;;;;;;;8.60;6.77;;;;;;;4.16;39.76;96352.94;5049959;28;20293;-65
2022/12/20 10:50:14;;;;;;;8.93;6.80;;;;;;;4.31;39.47;96345.25;5024437;28;20277;-66
2022/12/20 10:52:40;;;;;;;10.80;6.80;;;;;;;4.39;39.36;96333.50;5029660;28;20234;-66
2022/12/20 10:55:41;;;;;;;9.30;6.30;;;;;;;4.62;38.65;96332.28;5037127;28;20318;-66
2022/12/20 10:58:15;;;;;;;10.07;6.40;;;;;;;4.69;38.21;96327.56;4972384;28;20223;-66
2022/12/20 11:00:42;;;;;;;7.53;5.40;;;;;;;4.51;38.27;96325.97;5001615;28;20322;-66
2022/12/20 11:03:47;;;;;;;8.47;5.67;;;;;;;4.50;38.72;96321.69;5000918;28;20227;-67
2022/12/20 11:06:16;;;;;;;10.07;6.40;;;;;;;4.58;38.31;96328.16;5007764;28;20329;-66
2022/12/20 11:08:41;;;;;;;6.90;5.60;;;;;;;4.66;37.47;96317.31;4991984;28;20246;-65
2022/12/20 11:11:16;;;;;;;10.00;6.70;;;;;;;4.71;38.33;96311.88;4990072;28;20226;-66
2022/12/20 11:13:43;;;;;;;7.83;6.20;;;;;;;4.64;38.05;96313.94;4991481;28;20226;-66
2022/12/20 11:16:25;;;;;;;9.80;6.87;;;;;;;4.79;38.28;96310.50;4990141;28;20245;-67
2022/12/20 11:19:01;;;;;;;8.00;6.07;;;;;;;4.96;38.24;96308.72;4981208;28;20223;-66
2022/12/20 11:21:38;;;;;;;8.07;6.30;;;;;;;5.27;37.98;96300.84;4996959;28;20319;-66
2022/12/20 11:24:17;;;;;;;6.83;5.50;;;;;;;5.52;37.05;96299.44;4981673;28;20222;-67
2022/12/20 11:26:44;;;;;;;10.97;5.70;;;;;;;5.63;35.87;96294.41;4990142;28;20277;-67
2022/12/20 11:29:27;;;;;;;7.80;5.90;;;;;;;5.49;36.08;96286.56;5007704;28;20194;-67
2022/12/20 11:32:16;;;;;;;7.47;5.17;;;;;;;5.55;35.48;96283.59;4992475;28;20297;-66
2022/12/20 11:35:10;;;;;;;6.90;5.40;;;;;;;5.79;35.79;96285.69;5015404;28;20233;-65
2022/12/20 11:37:59;;;;;;;8.07;5.03;;;;;;;5.89;35.15;96284.22;5051846;28;20226;-66
2022/12/20 11:40:35;;;;;;;6.20;5.37;;;;;;;5.99;35.31;96280.16;5015326;28;20227;-66
2022/12/20 11:43:19;;;;;;;9.87;5.90;;;;;;;5.99;35.33;96280.16;5051083;28;20229;-65
2022/12/20 11:46:03;;;;;;;8.27;6.07;;;;;;;5.99;35.69;96264.50;5037802;28;20314;-65
2022/12/20 11:48:58;;;;;;;7.37;6.10;;;;;;;5.78;36.60;96268.38;5048677;28;20289;-65
2022/12/20 11:51:35;;;;;;;8.70;5.57;;;;;;;6.01;36.25;96262.59;5032237;28;20233;-65
2022/12/20 11:54:16;;;;;;;9.50;6.37;;;;;;;5.89;35.80;96265.94;5036905;28;20225;-65
2022/12/20 11:56:47;;;;;;;11.50;7.00;;;;;;;5.88;36.20;96261.63;5039966;28;20213;-66
2022/12/20 11:59:39;;;;;;;7.43;5.77;;;;;;;5.89;35.22;96260.72;5059726;28;20263;-66
2022/12/20 12:02:11;;;;;;;9.50;5.80;;;;;;;6.09;35.16;96251.69;5031431;28;20253;-65
2022/12/20 12:04:54;;;;;;;6.50;4.93;;;;;;;6.21;34.62;96255.34;5043137;28;20223;-65